Time;durP1;ratioP1;P1;durP2;ratioP2;P2;SDS_P1;SDS_P2;PMS_P1;PMS_P2;Temp;Humidity;BMP_temperature;BMP_pressure;BME280_temperature;BME280_humidity;BME280_pressure;Samples;Min_cycle;Max_cycle;Signal;HPM_P1;HPM_P2
2022/04/02 00:00:41;;;;;;;;;;;11.70;66.60;;;;;;5010775;28;81109;-54
2022/04/02 00:03:07;;;;;;;;;;;11.80;66.70;;;;;;5013204;28;81865;-54
2022/04/02 00:05:32;;;;;;;;;;;11.80;66.70;;;;;;5010923;28;81771;-55
2022/04/02 00:07:58;;;;;;;;;;;11.70;66.60;;;;;;5009952;28;83066;-54
2022/04/02 00:10:23;;;;;;;;;;;11.70;66.70;;;;;;5010370;28;83733;-54
2022/04/02 00:12:49;;;;;;;;;;;11.70;66.70;;;;;;5009940;28;82009;-54
2022/04/02 00:15:15;;;;;;;;;;;11.70;66.80;;;;;;5010643;28;83012;-54
2022/04/02 00:17:40;;;;;;;;;;;11.70;66.70;;;;;;5010325;28;82622;-54
2022/04/02 00:20:06;;;;;;;;;;;11.70;66.80;;;;;;5010367;28;81910;-54
2022/04/02 00:22:31;;;;;;;;;;;11.70;66.80;;;;;;5010448;28;83346;-54
2022/04/02 00:24:57;;;;;;;;;;;11.60;66.70;;;;;;5012801;28;83109;-55
2022/04/02 00:27:22;;;;;;;;;;;11.70;66.80;;;;;;5009310;28;81876;-55
2022/04/02 00:29:49;;;;;;;;;;;11.60;66.80;;;;;;5008841;28;82715;-55
2022/04/02 00:32:14;;;;;;;;;;;11.70;66.70;;;;;;5008336;28;82804;-57
2022/04/02 00:34:40;;;;;;;;;;;11.60;66.70;;;;;;5009185;28;82574;-55
2022/04/02 00:37:06;;;;;;;;;;;11.60;66.80;;;;;;5008870;28;83401;-54
2022/04/02 00:39:31;;;;;;;;;;;11.60;66.80;;;;;;5010734;28;82176;-54
2022/04/02 00:41:57;;;;;;;;;;;11.60;66.80;;;;;;5008913;28;82999;-54
2022/04/02 00:44:25;;;;;;;;;;;11.60;66.80;;;;;;5009011;28;82411;-56
2022/04/02 00:46:50;;;;;;;;;;;11.60;66.90;;;;;;5011401;28;81948;-56
2022/04/02 00:49:16;;;;;;;;;;;11.60;66.80;;;;;;5008903;28;82715;-54
2022/04/02 00:51:42;;;;;;;;;;;11.50;66.80;;;;;;5008714;28;81856;-54
2022/04/02 00:54:09;;;;;;;;;;;11.60;66.80;;;;;;5008531;28;82660;-53
2022/04/02 00:56:38;;;;;;;;;;;11.60;66.80;;;;;;5008070;28;83801;-54
2022/04/02 00:59:04;;;;;;;;;;;11.50;66.80;;;;;;5007676;28;82072;-54
2022/04/02 01:01:31;;;;;;;;;;;11.50;66.80;;;;;;5008568;28;81892;-54
2022/04/02 01:03:58;;;;;;;;;;;11.50;66.70;;;;;;5008415;28;82661;-54
2022/04/02 01:06:23;;;;;;;;;;;11.50;66.80;;;;;;5011444;28;82267;-53
2022/04/02 01:08:49;;;;;;;;;;;11.50;66.80;;;;;;5008545;28;82152;-53
2022/04/02 01:11:15;;;;;;;;;;;11.50;66.70;;;;;;5008395;28;82610;-54
2022/04/02 01:13:40;;;;;;;;;;;11.50;66.80;;;;;;5009063;28;81118;-55
2022/04/02 01:16:06;;;;;;;;;;;11.50;66.60;;;;;;5008735;28;82502;-54
2022/04/02 01:18:31;;;;;;;;;;;11.40;66.80;;;;;;5007358;28;81951;-57
2022/04/02 01:20:58;;;;;;;;;;;11.50;66.80;;;;;;5006696;28;82929;-55
2022/04/02 01:23:29;;;;;;;;;;;11.40;66.70;;;;;;5008014;28;83462;-54
2022/04/02 01:25:58;;;;;;;;;;;11.40;66.80;;;;;;5008142;28;81923;-54
2022/04/02 01:28:24;;;;;;;;;;;11.40;66.90;;;;;;5010796;28;82881;-54
2022/04/02 01:30:50;;;;;;;;;;;11.40;66.90;;;;;;5007921;28;81892;-54
2022/04/02 01:33:15;;;;;;;;;;;11.40;66.90;;;;;;5008055;28;82816;-53
2022/04/02 01:35:41;;;;;;;;;;;11.40;66.90;;;;;;5008186;28;82810;-56
2022/04/02 01:38:07;;;;;;;;;;;11.40;66.90;;;;;;5007853;28;81164;-54
2022/04/02 01:40:32;;;;;;;;;;;11.30;67.00;;;;;;5007644;28;82227;-54
2022/04/02 01:42:58;;;;;;;;;;;11.30;67.00;;;;;;5007911;28;82252;-54
2022/04/02 01:45:23;;;;;;;;;;;11.30;66.90;;;;;;5007554;28;82864;-53
2022/04/02 01:47:51;;;;;;;;;;;11.30;66.80;;;;;;5008135;28;82796;-54
2022/04/02 01:50:17;;;;;;;;;;;11.30;66.90;;;;;;5010175;28;83570;-56
2022/04/02 01:52:43;;;;;;;;;;;11.30;67.00;;;;;;5007639;28;82944;-55
2022/04/02 01:55:09;;;;;;;;;;;11.20;66.90;;;;;;5007412;28;83324;-54
2022/04/02 01:57:34;;;;;;;;;;;11.30;66.90;;;;;;5007804;28;81835;-55
2022/04/02 02:00:00;;;;;;;;;;;11.30;66.90;;;;;;5007711;28;82991;-54
2022/04/02 02:02:26;;;;;;;;;;;11.20;66.90;;;;;;5008224;28;81780;-54
2022/04/02 02:04:51;;;;;;;;;;;11.20;66.90;;;;;;5007587;28;81943;-55
2022/04/02 02:07:18;;;;;;;;;;;11.20;66.90;;;;;;5008018;28;82116;-57
2022/04/02 02:09:44;;;;;;;;;;;11.20;67.00;;;;;;5005653;28;82880;-53
2022/04/02 02:12:09;;;;;;;;;;;11.10;66.90;;;;;;5010235;28;81938;-53
2022/04/02 02:14:35;;;;;;;;;;;11.10;67.00;;;;;;5007500;28;81820;-55
2022/04/02 02:17:00;;;;;;;;;;;11.10;67.00;;;;;;5007425;28;82287;-53
2022/04/02 02:19:29;;;;;;;;;;;11.10;67.00;;;;;;5007479;28;82969;-54
2022/04/02 02:21:54;;;;;;;;;;;11.10;67.00;;;;;;5007143;28;83568;-54
2022/04/02 02:24:20;;;;;;;;;;;11.10;67.00;;;;;;5007646;28;82172;-53
2022/04/02 02:26:46;;;;;;;;;;;11.10;67.00;;;;;;5007872;28;82976;-56
2022/04/02 02:29:11;;;;;;;;;;;11.00;67.00;;;;;;5007454;28;82785;-55
2022/04/02 02:31:37;;;;;;;;;;;11.10;67.00;;;;;;5007279;28;81952;-53
2022/04/02 02:36:48;;;;;;;;;;;11.00;66.90;;;;;;5007538;28;81850;-53
2022/04/02 02:39:13;;;;;;;;;;;11.00;66.90;;;;;;5006846;28;82871;-53
2022/04/02 02:41:39;;;;;;;;;;;11.00;67.00;;;;;;5006986;28;82693;-56
2022/04/02 02:44:04;;;;;;;;;;;11.00;66.90;;;;;;5007093;28;82218;-55
2022/04/02 02:46:32;;;;;;;;;;;11.00;66.90;;;;;;5007164;28;83012;-53
2022/04/02 02:48:57;;;;;;;;;;;11.00;67.10;;;;;;5006781;28;82608;-54
2022/04/02 02:51:23;;;;;;;;;;;11.00;67.10;;;;;;5009865;28;81210;-54
2022/04/02 02:53:48;;;;;;;;;;;11.00;67.10;;;;;;5010781;28;81914;-56
2022/04/02 02:56:29;;;;;;;;;;;10.90;67.00;;;;;;5012994;28;82520;-54
2022/04/02 02:58:54;;;;;;;;;;;10.90;67.10;;;;;;5010303;28;82706;-53
2022/04/02 03:01:20;;;;;;;;;;;10.90;67.10;;;;;;5010660;28;82341;-57
2022/04/02 03:03:45;;;;;;;;;;;10.90;67.00;;;;;;5010378;28;81865;-54
2022/04/02 03:06:11;;;;;;;;;;;10.90;67.00;;;;;;5010712;28;82343;-54
2022/04/02 03:08:36;;;;;;;;;;;10.90;67.00;;;;;;5010406;28;82280;-54
2022/04/02 03:11:02;;;;;;;;;;;10.90;67.10;;;;;;5010273;28;82279;-54
2022/04/02 03:13:27;;;;;;;;;;;10.80;67.00;;;;;;5010357;28;82873;-56
2022/04/02 03:15:53;;;;;;;;;;;10.80;67.00;;;;;;5013536;28;81701;-54
2022/04/02 03:18:18;;;;;;;;;;;10.90;67.00;;;;;;5010189;28;82208;-54
2022/04/02 03:20:44;;;;;;;;;;;10.80;67.00;;;;;;5010203;28;81840;-53
2022/04/02 03:23:11;;;;;;;;;;;10.80;66.90;;;;;;5009435;28;82855;-54
2022/04/02 03:25:36;;;;;;;;;;;10.80;66.90;;;;;;5010057;28;82946;-56
2022/04/02 03:28:04;;;;;;;;;;;10.80;67.00;;;;;;5010177;28;82663;-54
2022/04/02 03:30:30;;;;;;;;;;;10.80;66.90;;;;;;5009804;28;82249;-56
2022/04/02 03:32:56;;;;;;;;;;;10.80;66.90;;;;;;5010032;28;82734;-54
2022/04/02 03:35:21;;;;;;;;;;;10.80;67.00;;;;;;5009704;28;83402;-53
2022/04/02 03:37:48;;;;;;;;;;;10.80;67.00;;;;;;5012876;28;81785;-55
2022/04/02 03:40:15;;;;;;;;;;;10.70;67.00;;;;;;5009783;28;82187;-56
2022/04/02 03:42:41;;;;;;;;;;;10.70;66.90;;;;;;5009800;28;81853;-58
2022/04/02 03:45:08;;;;;;;;;;;10.70;67.00;;;;;;5009885;28;82843;-55
2022/04/02 03:47:34;;;;;;;;;;;10.80;66.90;;;;;;5009004;28;84388;-53
2022/04/02 03:49:59;;;;;;;;;;;10.70;66.90;;;;;;5009563;28;81826;-53
2022/04/02 03:52:25;;;;;;;;;;;10.70;66.90;;;;;;5009912;28;81886;-54
2022/04/02 03:54:51;;;;;;;;;;;10.70;66.90;;;;;;5009333;28;83751;-55
2022/04/02 03:57:17;;;;;;;;;;;10.70;67.00;;;;;;5009667;28;81863;-53
2022/04/02 03:59:43;;;;;;;;;;;10.70;66.90;;;;;;5012097;28;82921;-54
2022/04/02 04:02:09;;;;;;;;;;;10.70;66.90;;;;;;5009494;28;81925;-53
2022/04/02 04:04:35;;;;;;;;;;;10.70;67.00;;;;;;5009976;28;83009;-53
2022/04/02 04:07:01;;;;;;;;;;;10.60;67.00;;;;;;5009243;28;82842;-54
2022/04/02 04:09:27;;;;;;;;;;;10.60;67.00;;;;;;5008626;28;82284;-54
2022/04/02 04:11:54;;;;;;;;;;;10.60;67.10;;;;;;5008813;28;83238;-53
2022/04/02 04:14:25;;;;;;;;;;;10.60;67.00;;;;;;5009148;28;82647;-54
2022/04/02 04:16:51;;;;;;;;;;;10.60;67.00;;;;;;5009319;28;81933;-54
2022/04/02 04:19:17;;;;;;;;;;;10.60;67.00;;;;;;5009449;28;82889;-54
2022/04/02 04:21:43;;;;;;;;;;;10.60;67.10;;;;;;5012235;28;82824;-55
2022/04/02 04:24:09;;;;;;;;;;;10.60;67.10;;;;;;5009502;28;82127;-55
2022/04/02 04:26:35;;;;;;;;;;;10.60;67.10;;;;;;5008899;28;83584;-55
2022/04/02 04:29:01;;;;;;;;;;;10.60;67.00;;;;;;5009490;28;81112;-55
2022/04/02 04:31:26;;;;;;;;;;;10.50;67.00;;;;;;5009090;28;82145;-54
2022/04/02 04:33:52;;;;;;;;;;;10.60;67.00;;;;;;5009040;28;82318;-55
2022/04/02 04:36:24;;;;;;;;;;;10.50;67.00;;;;;;5008535;28;83253;-54
2022/04/02 04:38:50;;;;;;;;;;;10.50;67.00;;;;;;5008576;28;82923;-55
2022/04/02 04:41:19;;;;;;;;;;;10.50;66.90;;;;;;5008775;28;82836;-54
2022/04/02 04:43:48;;;;;;;;;;;10.50;67.00;;;;;;5011597;28;81865;-57
2022/04/02 04:46:14;;;;;;;;;;;10.50;67.00;;;;;;5008733;28;83595;-54
2022/04/02 04:48:39;;;;;;;;;;;10.50;66.90;;;;;;5009059;28;82274;-54
2022/04/02 04:51:05;;;;;;;;;;;10.50;66.90;;;;;;5008922;28;81874;-54
2022/04/02 04:53:31;;;;;;;;;;;10.50;67.00;;;;;;5009093;28;83098;-54
2022/04/02 04:55:57;;;;;;;;;;;10.40;67.00;;;;;;5008763;28;82287;-53
2022/04/02 04:58:23;;;;;;;;;;;10.40;67.00;;;;;;5008813;28;83165;-56
2022/04/02 05:00:48;;;;;;;;;;;10.50;67.00;;;;;;5007933;28;83371;-53
2022/04/02 05:03:14;;;;;;;;;;;10.40;66.90;;;;;;5008885;28;82355;-56
2022/04/02 05:05:40;;;;;;;;;;;10.40;67.10;;;;;;5011042;28;82930;-55
2022/04/02 05:08:08;;;;;;;;;;;10.40;66.90;;;;;;5008831;28;81941;-54
2022/04/02 05:10:34;;;;;;;;;;;10.40;67.00;;;;;;5008579;28;81962;-55
2022/04/02 05:13:03;;;;;;;;;;;10.40;66.90;;;;;;5007277;28;83848;-55
2022/04/02 05:15:29;;;;;;;;;;;10.40;66.80;;;;;;5008383;28;81860;-55
2022/04/02 05:17:56;;;;;;;;;;;10.40;66.90;;;;;;5008836;28;82042;-55
2022/04/02 05:20:21;;;;;;;;;;;10.40;66.90;;;;;;5008176;28;82588;-55
2022/04/02 05:22:47;;;;;;;;;;;10.40;67.00;;;;;;5008579;28;81860;-56
2022/04/02 05:25:14;;;;;;;;;;;10.40;66.90;;;;;;5010236;28;82787;-53
2022/04/02 05:27:40;;;;;;;;;;;10.40;66.80;;;;;;5008267;28;82300;-54
2022/04/02 05:30:06;;;;;;;;;;;10.40;66.80;;;;;;5008110;28;82237;-53
2022/04/02 05:32:32;;;;;;;;;;;10.40;66.80;;;;;;5007975;28;82482;-54
2022/04/02 05:34:58;;;;;;;;;;;10.40;66.80;;;;;;5008122;28;82381;-56
2022/04/02 05:37:23;;;;;;;;;;;10.40;66.80;;;;;;5008199;28;82975;-54
2022/04/02 05:39:49;;;;;;;;;;;10.40;66.70;;;;;;5007437;28;82663;-53
2022/04/02 05:42:15;;;;;;;;;;;10.40;66.60;;;;;;5008369;28;81230;-55
2022/04/02 05:44:40;;;;;;;;;;;10.40;66.60;;;;;;5007881;28;82262;-58
2022/04/02 05:47:06;;;;;;;;;;;10.40;66.60;;;;;;5010714;28;81948;-54
2022/04/02 05:49:32;;;;;;;;;;;10.50;66.50;;;;;;5007505;28;82839;-53
2022/04/02 05:51:58;;;;;;;;;;;10.40;66.60;;;;;;5007905;28;82350;-54
2022/04/02 05:54:23;;;;;;;;;;;10.40;66.60;;;;;;5007855;28;81928;-53
2022/04/02 05:56:49;;;;;;;;;;;10.40;66.70;;;;;;5008051;28;81909;-54
2022/04/02 05:59:15;;;;;;;;;;;10.40;66.60;;;;;;5007789;28;82412;-56
2022/04/02 06:01:40;;;;;;;;;;;10.50;66.60;;;;;;5007661;28;81920;-54
2022/04/02 06:04:06;;;;;;;;;;;10.40;66.50;;;;;;5007747;28;82042;-53
2022/04/02 06:06:31;;;;;;;;;;;10.40;66.40;;;;;;5008144;28;81140;-54
2022/04/02 06:08:57;;;;;;;;;;;10.50;66.60;;;;;;5010438;28;82441;-54
2022/04/02 06:11:23;;;;;;;;;;;10.40;66.50;;;;;;5007664;28;82566;-55
2022/04/02 06:13:49;;;;;;;;;;;10.40;66.50;;;;;;5006816;28;83062;-53
2022/04/02 06:16:16;;;;;;;;;;;10.40;66.50;;;;;;5007682;28;84226;-56
2022/04/02 06:18:42;;;;;;;;;;;10.50;66.40;;;;;;5007134;28;82708;-54
2022/04/02 06:21:08;;;;;;;;;;;10.50;66.40;;;;;;5007420;28;81890;-56
2022/04/02 06:23:34;;;;;;;;;;;10.50;66.40;;;;;;5007292;28;82886;-56
2022/04/02 06:25:59;;;;;;;;;;;10.50;66.30;;;;;;5006885;28;83359;-54
2022/04/02 06:28:25;;;;;;;;;;;10.50;66.20;;;;;;5007504;28;81793;-54
2022/04/02 06:30:50;;;;;;;;;;;10.50;66.10;;;;;;5010595;28;81744;-56
2022/04/02 06:33:16;;;;;;;;;;;10.50;66.10;;;;;;5007352;28;81917;-55
2022/04/02 06:35:42;;;;;;;;;;;10.60;66.10;;;;;;5007172;28;83260;-55
2022/04/02 06:38:07;;;;;;;;;;;10.60;66.10;;;;;;5005251;28;83467;-53
2022/04/02 06:40:33;;;;;;;;;;;10.60;66.20;;;;;;5007293;28;82519;-56
2022/04/02 06:42:58;;;;;;;;;;;10.60;66.00;;;;;;5007076;28;83051;-54
2022/04/02 06:45:25;;;;;;;;;;;10.60;65.90;;;;;;5006778;28;82696;-53
2022/04/02 06:47:50;;;;;;;;;;;10.60;65.90;;;;;;5007349;28;82225;-54
2022/04/02 06:50:16;;;;;;;;;;;10.60;65.90;;;;;;5007574;28;82173;-54
2022/04/02 06:52:42;;;;;;;;;;;10.60;65.90;;;;;;5009536;28;83312;-55
2022/04/02 06:55:08;;;;;;;;;;;10.60;65.90;;;;;;5007699;28;82107;-53
2022/04/02 06:57:40;;;;;;;;;;;10.60;65.90;;;;;;5006801;28;83570;-55
2022/04/02 07:00:08;;;;;;;;;;;10.60;65.90;;;;;;5006918;28;81893;-53
2022/04/02 07:02:33;;;;;;;;;;;10.60;65.90;;;;;;5006334;28;83097;-55
2022/04/02 07:04:59;;;;;;;;;;;10.60;65.90;;;;;;5006878;28;82477;-57
2022/04/02 07:07:24;;;;;;;;;;;10.60;65.80;;;;;;5006882;28;82357;-55
2022/04/02 07:09:50;;;;;;;;;;;10.60;65.80;;;;;;5007025;28;82324;-56
2022/04/02 07:12:15;;;;;;;;;;;10.60;65.70;;;;;;5006848;28;82540;-55
2022/04/02 07:14:44;;;;;;;;;;;10.60;65.70;;;;;;5009377;28;81934;-54
2022/04/02 07:17:09;;;;;;;;;;;10.60;65.60;;;;;;5006473;28;83526;-58
2022/04/02 07:19:36;;;;;;;;;;;10.60;65.80;;;;;;5006555;28;81308;-56
2022/04/02 07:22:04;;;;;;;;;;;10.60;65.60;;;;;;5006718;28;82276;-54
2022/04/02 07:24:31;;;;;;;;;;;10.60;65.50;;;;;;5006398;28;83484;-56
2022/04/02 07:26:56;;;;;;;;;;;10.60;65.50;;;;;;5006234;28;83243;-59
2022/04/02 07:29:24;;;;;;;;;;;10.60;65.50;;;;;;5006538;28;84262;-56
2022/04/02 07:31:49;;;;;;;;;;;10.60;65.40;;;;;;5006656;28;82104;-58
2022/04/02 07:34:15;;;;;;;;;;;10.60;65.50;;;;;;5009292;28;82308;-55
2022/04/02 07:36:59;;;;;;;;;;;10.60;65.50;;;;;;5007537;28;82678;-55
2022/04/02 07:39:44;;;;;;;;;;;10.60;65.30;;;;;;5009433;28;82050;-54
2022/04/02 07:42:33;;;;;;;;;;;10.60;65.40;;;;;;5009878;28;82865;-57
2022/04/02 07:45:04;;;;;;;;;;;10.60;65.40;;;;;;5010184;28;82049;-56
2022/04/02 07:47:35;;;;;;;;;;;10.60;65.20;;;;;;5009781;28;82262;-58
2022/04/02 07:50:09;;;;;;;;;;;10.70;65.30;;;;;;5009624;28;83042;-56
2022/04/02 07:52:36;;;;;;;;;;;10.60;65.30;;;;;;5008842;28;83516;-54
2022/04/02 07:55:04;;;;;;;;;;;10.70;65.30;;;;;;5009551;28;81930;-55
2022/04/02 07:57:40;;;;;;;;;;;10.60;65.20;;;;;;5012231;28;82881;-55
2022/04/02 08:00:06;;;;;;;;;;;10.60;65.20;;;;;;5009738;28;82237;-57
2022/04/02 08:02:38;;;;;;;;;;;10.70;65.20;;;;;;5009481;28;82135;-55
2022/04/02 08:05:07;;;;;;;;;;;10.60;65.10;;;;;;5009351;28;82442;-55
2022/04/02 08:07:34;;;;;;;;;;;10.70;65.20;;;;;;5009431;28;82301;-55
2022/04/02 08:10:00;;;;;;;;;;;10.70;65.20;;;;;;5009818;28;82090;-54
2022/04/02 08:12:25;;;;;;;;;;;10.70;65.10;;;;;;5008498;28;82547;-56
2022/04/02 08:14:52;;;;;;;;;;;10.70;65.30;;;;;;5009335;28;81823;-59
2022/04/02 08:17:21;;;;;;;;;;;10.70;65.20;;;;;;5008719;28;82876;-55
2022/04/02 08:19:50;;;;;;;;;;;10.70;65.10;;;;;;5011800;28;83319;-54
2022/04/02 08:22:16;;;;;;;;;;;10.70;65.10;;;;;;5008595;28;81854;-59
2022/04/02 08:24:44;;;;;;;;;;;10.70;65.10;;;;;;5008988;28;83452;-55
2022/04/02 08:27:19;;;;;;;;;;;10.70;65.10;;;;;;5009153;28;81982;-58
2022/04/02 08:29:45;;;;;;;;;;;10.70;65.20;;;;;;5009307;28;82887;-55
2022/04/02 08:32:16;;;;;;;;;;;10.70;65.30;;;;;;5008909;28;83474;-55
2022/04/02 08:35:00;;;;;;;;;;;10.70;65.30;;;;;;5009802;28;81113;-58
2022/04/02 08:37:34;;;;;;;;;;;10.70;65.50;;;;;;5009213;28;82219;-54
2022/04/02 08:40:09;;;;;;;;;;;10.80;65.60;;;;;;5008561;28;81909;-59
2022/04/02 08:42:35;;;;;;;;;;;10.80;65.50;;;;;;5011098;28;83226;-55
2022/04/02 08:45:08;;;;;;;;;;;10.70;65.70;;;;;;5008720;28;82422;-58
2022/04/02 08:47:52;;;;;;;;;;;10.70;65.50;;;;;;5008823;28;82248;-54
2022/04/02 08:50:24;;;;;;;;;;;10.80;65.60;;;;;;5008816;28;83057;-55
2022/04/02 08:52:49;;;;;;;;;;;10.70;65.50;;;;;;5008500;28;83501;-55
2022/04/02 08:55:16;;;;;;;;;;;10.70;65.70;;;;;;5008646;28;81916;-55
2022/04/02 08:57:41;;;;;;;;;;;10.80;65.70;;;;;;5008697;28;82069;-58
2022/04/02 09:00:08;;;;;;;;;;;10.80;65.70;;;;;;5009290;28;81760;-55
2022/04/02 09:02:39;;;;;;;;;;;10.80;65.80;;;;;;5008973;28;82345;-56
2022/04/02 09:05:20;;;;;;;;;;;10.80;65.70;;;;;;5011059;28;82879;-56
2022/04/02 09:08:04;;;;;;;;;;;10.80;65.90;;;;;;5007902;28;82791;-58
2022/04/02 09:10:33;;;;;;;;;;;10.80;65.80;;;;;;5007673;28;81969;-55
2022/04/02 09:13:01;;;;;;;;;;;10.80;65.80;;;;;;5008665;28;82419;-55
2022/04/02 09:15:49;;;;;;;;;;;10.80;65.80;;;;;;5008499;28;81932;-55
2022/04/02 09:18:32;;;;;;;;;;;10.80;65.90;;;;;;5008440;28;83017;-55
2022/04/02 09:21:01;;;;;;;;;;;10.80;66.00;;;;;;5008502;28;82579;-56
2022/04/02 09:23:30;;;;;;;;;;;10.90;65.80;;;;;;5008450;28;81932;-56
2022/04/02 09:26:14;;;;;;;;;;;10.90;66.00;;;;;;5011472;28;81891;-55
2022/04/02 09:28:43;;;;;;;;;;;10.80;65.90;;;;;;5008208;28;82260;-57
2022/04/02 09:31:27;;;;;;;;;;;10.90;65.90;;;;;;5008039;28;82795;-58
2022/04/02 09:34:09;;;;;;;;;;;10.90;65.90;;;;;;5007153;28;84650;-55
2022/04/02 09:36:35;;;;;;;;;;;10.90;65.80;;;;;;5008414;28;81854;-57
2022/04/02 09:39:05;;;;;;;;;;;10.90;65.70;;;;;;5007890;28;83159;-55
2022/04/02 09:41:49;;;;;;;;;;;10.90;65.70;;;;;;5007856;28;82669;-57
2022/04/02 09:44:20;;;;;;;;;;;11.00;65.50;;;;;;5008077;28;82117;-57
2022/04/02 09:46:52;;;;;;;;;;;11.00;65.40;;;;;;5007804;28;83021;-55
2022/04/02 09:49:32;;;;;;;;;;;11.00;65.40;;;;;;5010319;28;83336;-57
2022/04/02 09:52:08;;;;;;;;;;;11.00;65.50;;;;;;5008229;28;82105;-58
2022/04/02 09:54:51;;;;;;;;;;;11.10;65.50;;;;;;5007438;28;83352;-59
2022/04/02 09:57:39;;;;;;;;;;;11.10;65.30;;;;;;5007994;28;81914;-56
2022/04/02 10:00:08;;;;;;;;;;;11.10;65.60;;;;;;4968405;28;83237;-56
2022/04/02 10:02:57;;;;;;;;;;;11.10;65.60;;;;;;5007431;28;83909;-56
2022/04/02 10:05:27;;;;;;;;;;;11.10;65.70;;;;;;5007684;28;82260;-56
2022/04/02 10:08:05;;;;;;;;;;;11.20;65.50;;;;;;5007674;28;83271;-54
2022/04/02 10:10:31;;;;;;;;;;;11.20;65.60;;;;;;5007142;28;84119;-57
2022/04/02 10:12:57;;;;;;;;;;;11.20;65.70;;;;;;5010446;28;81943;-56
2022/04/02 10:15:23;;;;;;;;;;;11.20;65.70;;;;;;5007121;28;83464;-55
2022/04/02 10:17:51;;;;;;;;;;;11.30;65.50;;;;;;5007964;28;81124;-57
2022/04/02 10:20:18;;;;;;;;;;;11.20;65.20;;;;;;5007508;28;82084;-55
2022/04/02 10:22:44;;;;;;;;;;;11.30;66.00;;;;;;5007431;28;83295;-55
2022/04/02 10:25:11;;;;;;;;;;;11.20;65.10;;;;;;4956880;28;83147;-58
2022/04/02 10:27:38;;;;;;;;;;;11.30;65.70;;;;;;4948273;28;83413;-59
2022/04/02 10:30:05;;;;;;;;;;;11.30;65.00;;;;;;4948139;28;82578;-55
2022/04/02 10:32:37;;;;;;;;;;;11.30;65.00;;;;;;4948421;28;82234;-55
2022/04/02 10:35:06;;;;;;;;;;;11.40;65.00;;;;;;4950670;28;83098;-54
2022/04/02 10:37:39;;;;;;;;;;;11.40;64.90;;;;;;4948170;28;81962;-54
2022/04/02 10:40:06;;;;;;;;;;;11.40;64.70;;;;;;4958312;28;82607;-54
2022/04/02 10:42:33;;;;;;;;;;;11.40;64.80;;;;;;4967988;28;82885;-55
2022/04/02 10:45:02;;;;;;;;;;;11.40;64.90;;;;;;4967561;28;81826;-55
2022/04/02 10:47:28;;;;;;;;;;;11.40;64.70;;;;;;4967622;28;82952;-56
2022/04/02 10:50:01;;;;;;;;;;;11.40;64.50;;;;;;4966662;28;84321;-54
2022/04/02 10:52:28;;;;;;;;;;;11.40;64.70;;;;;;4967645;28;82235;-54
2022/04/02 10:54:54;;;;;;;;;;;11.40;64.70;;;;;;4967667;28;83171;-54
2022/04/02 10:57:19;;;;;;;;;;;11.40;64.70;;;;;;4969191;28;82872;-54
2022/04/02 10:59:47;;;;;;;;;;;11.50;64.80;;;;;;4967506;28;82872;-56
2022/04/02 11:02:22;;;;;;;;;;;11.40;64.80;;;;;;4967262;28;82527;-54
2022/04/02 11:04:58;;;;;;;;;;;11.50;64.70;;;;;;4967422;28;82267;-54
2022/04/02 11:07:28;;;;;;;;;;;11.50;64.70;;;;;;4967917;28;82824;-55
2022/04/02 11:09:58;;;;;;;;;;;11.50;64.40;;;;;;4966978;28;83548;-55
2022/04/02 11:12:28;;;;;;;;;;;11.50;64.50;;;;;;4969352;28;82355;-54
2022/04/02 11:14:53;;;;;;;;;;;11.50;64.40;;;;;;4970342;28;83576;-56
2022/04/02 11:17:28;;;;;;;;;;;11.50;64.40;;;;;;4970444;28;83627;-55
2022/04/02 11:20:01;;;;;;;;;;;11.50;64.10;;;;;;4973375;28;82010;-55
2022/04/02 11:22:34;;;;;;;;;;;11.50;64.30;;;;;;4970656;28;82579;-54
2022/04/02 11:25:02;;;;;;;;;;;11.40;64.20;;;;;;4970638;28;82219;-55
2022/04/02 11:27:29;;;;;;;;;;;11.50;64.20;;;;;;4970646;28;83364;-55
2022/04/02 11:30:00;;;;;;;;;;;11.50;64.30;;;;;;4970271;28;82758;-55
2022/04/02 11:32:26;;;;;;;;;;;11.50;64.40;;;;;;4970967;28;81349;-55
2022/04/02 11:35:07;;;;;;;;;;;11.50;64.60;;;;;;4970474;28;82074;-55
2022/04/02 11:37:35;;;;;;;;;;;11.50;64.50;;;;;;4970225;28;82578;-56
2022/04/02 11:40:03;;;;;;;;;;;11.50;64.50;;;;;;4972517;28;83077;-55
2022/04/02 11:42:33;;;;;;;;;;;11.60;64.60;;;;;;4969910;28;82601;-54
2022/04/02 11:45:01;;;;;;;;;;;11.50;64.60;;;;;;4970163;28;81929;-55
2022/04/02 11:47:27;;;;;;;;;;;11.50;64.80;;;;;;4970592;28;82376;-56
2022/04/02 11:49:54;;;;;;;;;;;11.50;65.00;;;;;;4969950;28;82777;-58
2022/04/02 11:52:19;;;;;;;;;;;11.50;65.40;;;;;;4970320;28;82179;-55
2022/04/02 11:54:48;;;;;;;;;;;11.60;65.40;;;;;;4970573;28;81944;-55
2022/04/02 11:57:15;;;;;;;;;;;11.60;65.30;;;;;;4970754;28;81476;-54
2022/04/02 11:59:51;;;;;;;;;;;11.60;65.50;;;;;;4970048;28;81932;-56
2022/04/02 12:02:39;;;;;;;;;;;11.70;65.60;;;;;;4972498;28;82132;-55
2022/04/02 12:05:06;;;;;;;;;;;11.70;65.50;;;;;;4969444;28;82859;-54
2022/04/02 12:07:38;;;;;;;;;;;11.70;65.40;;;;;;4970080;28;83089;-54
2022/04/02 12:10:04;;;;;;;;;;;11.70;65.60;;;;;;4969601;28;83405;-55
2022/04/02 12:12:30;;;;;;;;;;;11.70;65.70;;;;;;4970154;28;82065;-57
2022/04/02 12:15:07;;;;;;;;;;;11.80;65.70;;;;;;4970178;28;82318;-55
2022/04/02 12:17:34;;;;;;;;;;;11.70;66.10;;;;;;4969977;28;82532;-57
2022/04/02 12:20:00;;;;;;;;;;;11.80;65.70;;;;;;4969766;28;82331;-56
2022/04/02 12:22:34;;;;;;;;;;;11.80;65.40;;;;;;4969961;28;82719;-54
2022/04/02 12:25:01;;;;;;;;;;;11.80;65.40;;;;;;4972173;28;83474;-56
2022/04/02 12:27:36;;;;;;;;;;;11.80;65.60;;;;;;4969691;28;82593;-55
2022/04/02 12:30:07;;;;;;;;;;;11.80;65.70;;;;;;4968674;28;84215;-55
2022/04/02 12:32:32;;;;;;;;;;;11.80;65.80;;;;;;4968828;28;82182;-57
2022/04/02 12:34:59;;;;;;;;;;;11.90;65.70;;;;;;4969708;28;82126;-57
2022/04/02 12:37:33;;;;;;;;;;;11.90;66.10;;;;;;4969320;28;83587;-55
2022/04/02 12:39:59;;;;;;;;;;;11.90;66.10;;;;;;4969096;28;82158;-56
2022/04/02 12:42:38;;;;;;;;;;;11.90;65.70;;;;;;4969723;28;83124;-55
2022/04/02 12:45:11;;;;;;;;;;;11.90;65.70;;;;;;4969177;28;83719;-56
2022/04/02 12:47:37;;;;;;;;;;;11.90;65.60;;;;;;4972509;28;81154;-57
2022/04/02 12:50:13;;;;;;;;;;;11.90;65.80;;;;;;4968945;28;83884;-55
2022/04/02 12:52:49;;;;;;;;;;;11.90;65.80;;;;;;4969286;28;81884;-55
2022/04/02 12:55:24;;;;;;;;;;;11.90;65.60;;;;;;4968566;28;83102;-56
2022/04/02 12:57:55;;;;;;;;;;;11.90;65.60;;;;;;4969330;28;82529;-55
2022/04/02 13:00:25;;;;;;;;;;;11.90;65.70;;;;;;4969271;28;82318;-55
2022/04/02 13:02:54;;;;;;;;;;;11.90;65.70;;;;;;4968495;28;82958;-66
2022/04/02 13:05:20;;;;;;;;;;;11.90;66.00;;;;;;4955760;28;83472;-57
2022/04/02 13:07:58;;;;;;;;;;;12.00;65.80;;;;;;4951733;28;81886;-66
2022/04/02 13:10:25;;;;;;;;;;;12.00;65.70;;;;;;4953698;28;82092;-62
2022/04/02 13:12:51;;;;;;;;;;;12.10;65.90;;;;;;4951094;28;81063;-57
2022/04/02 13:15:17;;;;;;;;;;;12.20;66.20;;;;;;4950527;28;82201;-61
2022/04/02 13:20:35;;;;;;;;;;;12.20;66.70;;;;;;4950648;28;82859;-59
2022/04/02 13:23:01;;;;;;;;;;;12.20;66.40;;;;;;4949843;28;84019;-60
2022/04/02 13:25:29;;;;;;;;;;;12.20;66.20;;;;;;4949541;28;82632;-61
2022/04/02 13:28:04;;;;;;;;;;;12.30;65.80;;;;;;4949823;28;81980;-64
2022/04/02 13:30:51;;;;;;;;;;;12.20;65.00;;;;;;4949860;28;82892;-64
2022/04/02 13:33:35;;;;;;;;;;;12.20;65.40;;;;;;4951653;28;83255;-71
2022/04/02 13:36:15;;;;;;;;;;;12.30;64.30;;;;;;4949633;28;82869;-58
2022/04/02 13:38:51;;;;;;;;;;;12.30;64.20;;;;;;4951060;28;82632;-64
2022/04/02 13:41:23;;;;;;;;;;;12.30;63.70;;;;;;4950761;28;81919;-61
2022/04/02 13:43:53;;;;;;;;;;;12.40;64.10;;;;;;4950756;28;82053;-59
2022/04/02 13:46:21;;;;;;;;;;;12.40;63.00;;;;;;4949890;28;84544;-61
2022/04/02 13:48:58;;;;;;;;;;;12.50;63.20;;;;;;4950896;28;81892;-54
2022/04/02 13:51:43;;;;;;;;;;;12.40;63.50;;;;;;4950629;28;83095;-53
2022/04/02 13:54:29;;;;;;;;;;;12.40;65.30;;;;;;4953187;28;82645;-54
2022/04/02 13:56:57;;;;;;;;;;;12.40;65.20;;;;;;4950213;28;82080;-54
2022/04/02 13:59:26;;;;;;;;;;;12.50;65.40;;;;;;4950441;28;83736;-51
2022/04/02 14:01:53;;;;;;;;;;;12.50;65.90;;;;;;4949864;28;81944;-58
2022/04/02 14:04:23;;;;;;;;;;;12.40;65.90;;;;;;4951055;28;82027;-58
2022/04/02 14:06:52;;;;;;;;;;;12.50;65.30;;;;;;4950596;28;82435;-56
2022/04/02 14:09:20;;;;;;;;;;;12.50;65.10;;;;;;4950785;28;81937;-60
2022/04/02 14:11:48;;;;;;;;;;;12.60;64.50;;;;;;4949374;28;82999;-53
2022/04/02 14:14:22;;;;;;;;;;;12.50;63.60;;;;;;4950570;28;82028;-51
2022/04/02 14:17:06;;;;;;;;;;;12.40;63.60;;;;;;4952260;28;81863;-51
2022/04/02 14:19:41;;;;;;;;;;;12.50;63.10;;;;;;4950051;28;83409;-53
2022/04/02 14:22:08;;;;;;;;;;;12.50;63.70;;;;;;4949581;28;81862;-52
2022/04/02 14:24:40;;;;;;;;;;;13.60;61.00;;;;;;4950135;28;83177;-50
2022/04/02 14:27:24;;;;;;;;;;;15.00;57.10;;;;;;4949896;28;83588;-51
2022/04/02 14:29:53;;;;;;;;;;;15.40;56.40;;;;;;4950474;28;81274;-51